sensor_id;sensor_type;location;lat;lon;timestamp;P1;durP1;ratioP1;P2;durP2;ratioP2
56307;SDS011;42217;50.422;7.210;2023-11-19T00:02:16;15.37;;;1.10;;
56307;SDS011;42217;50.422;7.210;2023-11-19T00:04:41;0.27;;;0.27;;
56307;SDS011;42217;50.422;7.210;2023-11-19T00:07:07;0.70;;;0.70;;
56307;SDS011;42217;50.422;7.210;2023-11-19T00:09:35;0.73;;;0.70;;
56307;SDS011;42217;50.422;7.210;2023-11-19T00:12:06;1.80;;;0.80;;
56307;SDS011;42217;50.422;7.210;2023-11-19T00:14:32;0.37;;;0.37;;
56307;SDS011;42217;50.422;7.210;2023-11-19T00:16:58;0.50;;;0.50;;
56307;SDS011;42217;50.422;7.210;2023-11-19T00:19:24;0.67;;;0.37;;
56307;SDS011;42217;50.422;7.210;2023-11-19T00:21:51;0.50;;;0.50;;
56307;SDS011;42217;50.422;7.210;2023-11-19T00:24:17;0.50;;;0.50;;
56307;SDS011;42217;50.422;7.210;2023-11-19T00:26:43;0.80;;;0.80;;
56307;SDS011;42217;50.422;7.210;2023-11-19T00:29:09;0.53;;;0.53;;
56307;SDS011;42217;50.422;7.210;2023-11-19T00:31:35;0.50;;;0.50;;
56307;SDS011;42217;50.422;7.210;2023-11-19T00:34:01;0.40;;;0.40;;
56307;SDS011;42217;50.422;7.210;2023-11-19T00:36:27;0.50;;;0.50;;
56307;SDS011;42217;50.422;7.210;2023-11-19T00:38:53;0.37;;;0.37;;
56307;SDS011;42217;50.422;7.210;2023-11-19T00:41:19;0.60;;;0.60;;
56307;SDS011;42217;50.422;7.210;2023-11-19T00:43:45;0.37;;;0.37;;
56307;SDS011;42217;50.422;7.210;2023-11-19T00:46:11;0.60;;;0.60;;
56307;SDS011;42217;50.422;7.210;2023-11-19T00:48:37;0.60;;;0.60;;
56307;SDS011;42217;50.422;7.210;2023-11-19T00:51:03;0.37;;;0.37;;
56307;SDS011;42217;50.422;7.210;2023-11-19T00:53:29;0.70;;;0.70;;
56307;SDS011;42217;50.422;7.210;2023-11-19T00:55:55;2.20;;;0.80;;
56307;SDS011;42217;50.422;7.210;2023-11-19T00:58:22;2.60;;;0.60;;
56307;SDS011;42217;50.422;7.210;2023-11-19T01:00:47;0.90;;;0.57;;
56307;SDS011;42217;50.422;7.210;2023-11-19T01:03:13;1.23;;;0.60;;
56307;SDS011;42217;50.422;7.210;2023-11-19T01:05:40;0.50;;;0.50;;
56307;SDS011;42217;50.422;7.210;2023-11-19T01:08:06;1.30;;;1.13;;
56307;SDS011;42217;50.422;7.210;2023-11-19T01:10:33;2.33;;;0.50;;
56307;SDS011;42217;50.422;7.210;2023-11-19T01:12:59;0.23;;;0.23;;
56307;SDS011;42217;50.422;7.210;2023-11-19T01:15:25;0.60;;;0.60;;
56307;SDS011;42217;50.422;7.210;2023-11-19T01:17:51;0.50;;;0.50;;
56307;SDS011;42217;50.422;7.210;2023-11-19T01:20:17;0.53;;;0.53;;
56307;SDS011;42217;50.422;7.210;2023-11-19T01:22:43;0.87;;;0.47;;
56307;SDS011;42217;50.422;7.210;2023-11-19T01:25:09;0.67;;;0.67;;
56307;SDS011;42217;50.422;7.210;2023-11-19T01:27:35;0.60;;;0.60;;
56307;SDS011;42217;50.422;7.210;2023-11-19T01:30:01;0.73;;;0.53;;
56307;SDS011;42217;50.422;7.210;2023-11-19T01:32:31;0.50;;;0.50;;
56307;SDS011;42217;50.422;7.210;2023-11-19T01:34:57;0.67;;;0.67;;
56307;SDS011;42217;50.422;7.210;2023-11-19T01:37:23;0.47;;;0.47;;
56307;SDS011;42217;50.422;7.210;2023-11-19T01:39:48;0.57;;;0.57;;
56307;SDS011;42217;50.422;7.210;2023-11-19T01:42:14;0.70;;;0.70;;
56307;SDS011;42217;50.422;7.210;2023-11-19T01:44:40;0.50;;;0.50;;
56307;SDS011;42217;50.422;7.210;2023-11-19T01:47:06;0.90;;;0.60;;
56307;SDS011;42217;50.422;7.210;2023-11-19T01:49:33;0.60;;;0.60;;
56307;SDS011;42217;50.422;7.210;2023-11-19T01:51:59;0.60;;;0.50;;
56307;SDS011;42217;50.422;7.210;2023-11-19T01:54:25;2.50;;;0.40;;
56307;SDS011;42217;50.422;7.210;2023-11-19T01:56:53;0.40;;;0.40;;
56307;SDS011;42217;50.422;7.210;2023-11-19T01:59:21;0.53;;;0.53;;
56307;SDS011;42217;50.422;7.210;2023-11-19T02:01:51;0.40;;;0.40;;
56307;SDS011;42217;50.422;7.210;2023-11-19T02:04:20;0.40;;;0.40;;
56307;SDS011;42217;50.422;7.210;2023-11-19T02:06:46;0.40;;;0.40;;
56307;SDS011;42217;50.422;7.210;2023-11-19T02:09:17;0.70;;;0.70;;
56307;SDS011;42217;50.422;7.210;2023-11-19T02:11:44;1.83;;;0.67;;
56307;SDS011;42217;50.422;7.210;2023-11-19T02:14:14;0.63;;;0.63;;
56307;SDS011;42217;50.422;7.210;2023-11-19T02:16:40;0.50;;;0.50;;
56307;SDS011;42217;50.422;7.210;2023-11-19T02:19:06;0.50;;;0.50;;
56307;SDS011;42217;50.422;7.210;2023-11-19T02:21:33;0.40;;;0.40;;
56307;SDS011;42217;50.422;7.210;2023-11-19T02:23:59;1.10;;;0.37;;
56307;SDS011;42217;50.422;7.210;2023-11-19T02:28:58;9.00;;;2.20;;
56307;SDS011;42217;50.422;7.210;2023-11-19T02:31:24;0.63;;;0.50;;
56307;SDS011;42217;50.422;7.210;2023-11-19T02:33:49;2.93;;;0.40;;
56307;SDS011;42217;50.422;7.210;2023-11-19T02:36:15;2.10;;;0.60;;
56307;SDS011;42217;50.422;7.210;2023-11-19T02:38:41;0.73;;;0.30;;
56307;SDS011;42217;50.422;7.210;2023-11-19T02:41:07;0.40;;;0.40;;
56307;SDS011;42217;50.422;7.210;2023-11-19T02:43:35;1.40;;;0.47;;
56307;SDS011;42217;50.422;7.210;2023-11-19T02:46:04;0.60;;;0.60;;
56307;SDS011;42217;50.422;7.210;2023-11-19T02:48:34;0.40;;;0.30;;
56307;SDS011;42217;50.422;7.210;2023-11-19T02:51:00;0.13;;;0.13;;
56307;SDS011;42217;50.422;7.210;2023-11-19T02:53:28;0.50;;;0.50;;
56307;SDS011;42217;50.422;7.210;2023-11-19T02:55:54;0.30;;;0.30;;
56307;SDS011;42217;50.422;7.210;2023-11-19T02:58:26;0.50;;;0.50;;
56307;SDS011;42217;50.422;7.210;2023-11-19T03:00:53;0.30;;;0.30;;
56307;SDS011;42217;50.422;7.210;2023-11-19T03:03:25;0.43;;;0.30;;
56307;SDS011;42217;50.422;7.210;2023-11-19T03:06:03;0.50;;;0.30;;
56307;SDS011;42217;50.422;7.210;2023-11-19T03:08:35;0.47;;;0.47;;
56307;SDS011;42217;50.422;7.210;2023-11-19T03:11:01;0.97;;;0.50;;
56307;SDS011;42217;50.422;7.210;2023-11-19T03:13:27;1.00;;;0.60;;
56307;SDS011;42217;50.422;7.210;2023-11-19T03:15:52;1.13;;;0.43;;
56307;SDS011;42217;50.422;7.210;2023-11-19T03:18:21;1.03;;;0.53;;
56307;SDS011;42217;50.422;7.210;2023-11-19T03:20:47;0.83;;;0.50;;
56307;SDS011;42217;50.422;7.210;2023-11-19T03:23:13;0.87;;;0.50;;
56307;SDS011;42217;50.422;7.210;2023-11-19T03:25:38;1.80;;;0.80;;
56307;SDS011;42217;50.422;7.210;2023-11-19T03:28:04;2.60;;;0.60;;
56307;SDS011;42217;50.422;7.210;2023-11-19T03:30:30;0.60;;;0.40;;
56307;SDS011;42217;50.422;7.210;2023-11-19T03:32:56;4.47;;;0.50;;
56307;SDS011;42217;50.422;7.210;2023-11-19T03:35:22;0.60;;;0.40;;
56307;SDS011;42217;50.422;7.210;2023-11-19T03:37:49;2.08;;;1.33;;
56307;SDS011;42217;50.422;7.210;2023-11-19T03:40:15;0.40;;;0.40;;
56307;SDS011;42217;50.422;7.210;2023-11-19T03:42:41;2.10;;;0.60;;
56307;SDS011;42217;50.422;7.210;2023-11-19T03:45:07;0.30;;;0.30;;
56307;SDS011;42217;50.422;7.210;2023-11-19T03:47:36;0.83;;;0.47;;
56307;SDS011;42217;50.422;7.210;2023-11-19T03:50:02;0.70;;;0.70;;
56307;SDS011;42217;50.422;7.210;2023-11-19T03:52:28;0.40;;;0.40;;
56307;SDS011;42217;50.422;7.210;2023-11-19T03:54:54;0.30;;;0.30;;
56307;SDS011;42217;50.422;7.210;2023-11-19T03:57:20;0.60;;;0.40;;
56307;SDS011;42217;50.422;7.210;2023-11-19T03:59:46;0.65;;;0.45;;
56307;SDS011;42217;50.422;7.210;2023-11-19T04:02:12;0.77;;;0.70;;
56307;SDS011;42217;50.422;7.210;2023-11-19T04:04:38;1.73;;;0.83;;
56307;SDS011;42217;50.422;7.210;2023-11-19T04:07:04;1.07;;;0.50;;
56307;SDS011;42217;50.422;7.210;2023-11-19T04:12:20;0.80;;;0.77;;
56307;SDS011;42217;50.422;7.210;2023-11-19T04:14:47;1.17;;;0.57;;
56307;SDS011;42217;50.422;7.210;2023-11-19T04:17:12;2.60;;;0.97;;
56307;SDS011;42217;50.422;7.210;2023-11-19T04:19:38;1.48;;;0.70;;
56307;SDS011;42217;50.422;7.210;2023-11-19T04:22:06;4.63;;;1.57;;
56307;SDS011;42217;50.422;7.210;2023-11-19T04:24:33;0.80;;;0.50;;
56307;SDS011;42217;50.422;7.210;2023-11-19T04:26:59;0.60;;;0.60;;
56307;SDS011;42217;50.422;7.210;2023-11-19T04:29:24;2.30;;;0.50;;
56307;SDS011;42217;50.422;7.210;2023-11-19T04:31:50;3.72;;;0.65;;
56307;SDS011;42217;50.422;7.210;2023-11-19T04:34:16;2.80;;;0.95;;
56307;SDS011;42217;50.422;7.210;2023-11-19T04:36:41;1.27;;;0.57;;
56307;SDS011;42217;50.422;7.210;2023-11-19T04:39:08;3.65;;;0.90;;
56307;SDS011;42217;50.422;7.210;2023-11-19T04:41:35;2.37;;;1.10;;
56307;SDS011;42217;50.422;7.210;2023-11-19T04:44:01;4.18;;;0.93;;
56307;SDS011;42217;50.422;7.210;2023-11-19T04:46:27;4.47;;;1.10;;
56307;SDS011;42217;50.422;7.210;2023-11-19T04:48:52;8.38;;;1.00;;
56307;SDS011;42217;50.422;7.210;2023-11-19T04:51:18;4.68;;;1.63;;
56307;SDS011;42217;50.422;7.210;2023-11-19T04:53:44;3.75;;;0.77;;
56307;SDS011;42217;50.422;7.210;2023-11-19T04:56:10;4.72;;;1.05;;
56307;SDS011;42217;50.422;7.210;2023-11-19T04:58:36;4.45;;;1.25;;
56307;SDS011;42217;50.422;7.210;2023-11-19T05:01:02;6.43;;;1.10;;
56307;SDS011;42217;50.422;7.210;2023-11-19T05:03:29;3.60;;;1.08;;
56307;SDS011;42217;50.422;7.210;2023-11-19T05:05:58;3.88;;;0.88;;
56307;SDS011;42217;50.422;7.210;2023-11-19T05:08:24;6.25;;;1.10;;
56307;SDS011;42217;50.422;7.210;2023-11-19T05:10:50;5.27;;;1.13;;
56307;SDS011;42217;50.422;7.210;2023-11-19T05:13:15;8.50;;;2.03;;
56307;SDS011;42217;50.422;7.210;2023-11-19T05:15:42;4.22;;;1.02;;
56307;SDS011;42217;50.422;7.210;2023-11-19T05:18:07;6.63;;;1.00;;
56307;SDS011;42217;50.422;7.210;2023-11-19T05:20:33;5.38;;;0.90;;
56307;SDS011;42217;50.422;7.210;2023-11-19T05:22:59;9.63;;;1.10;;
56307;SDS011;42217;50.422;7.210;2023-11-19T05:25:25;8.70;;;1.30;;
56307;SDS011;42217;50.422;7.210;2023-11-19T05:27:54;7.90;;;2.77;;
56307;SDS011;42217;50.422;7.210;2023-11-19T05:30:20;6.78;;;1.17;;
56307;SDS011;42217;50.422;7.210;2023-11-19T05:32:46;6.20;;;2.25;;
56307;SDS011;42217;50.422;7.210;2023-11-19T05:35:12;4.33;;;1.40;;
56307;SDS011;42217;50.422;7.210;2023-11-19T05:37:37;8.07;;;2.40;;
56307;SDS011;42217;50.422;7.210;2023-11-19T05:40:03;10.27;;;1.88;;
56307;SDS011;42217;50.422;7.210;2023-11-19T05:42:33;5.10;;;1.33;;
56307;SDS011;42217;50.422;7.210;2023-11-19T05:44:59;8.15;;;1.50;;
56307;SDS011;42217;50.422;7.210;2023-11-19T05:47:24;11.00;;;2.40;;
56307;SDS011;42217;50.422;7.210;2023-11-19T05:49:50;5.67;;;1.47;;
56307;SDS011;42217;50.422;7.210;2023-11-19T05:52:15;10.33;;;1.67;;
56307;SDS011;42217;50.422;7.210;2023-11-19T05:54:41;5.07;;;1.30;;
56307;SDS011;42217;50.422;7.210;2023-11-19T05:57:07;4.28;;;1.83;;
56307;SDS011;42217;50.422;7.210;2023-11-19T05:59:35;9.47;;;2.40;;
56307;SDS011;42217;50.422;7.210;2023-11-19T06:02:02;9.40;;;1.20;;
56307;SDS011;42217;50.422;7.210;2023-11-19T06:04:28;6.00;;;1.73;;
56307;SDS011;42217;50.422;7.210;2023-11-19T06:06:54;6.70;;;1.80;;
56307;SDS011;42217;50.422;7.210;2023-11-19T06:09:23;4.37;;;1.60;;
56307;SDS011;42217;50.422;7.210;2023-11-19T06:11:50;8.87;;;2.10;;
56307;SDS011;42217;50.422;7.210;2023-11-19T06:14:17;5.57;;;2.00;;
56307;SDS011;42217;50.422;7.210;2023-11-19T06:16:43;13.30;;;2.70;;
56307;SDS011;42217;50.422;7.210;2023-11-19T06:19:09;16.88;;;3.80;;
56307;SDS011;42217;50.422;7.210;2023-11-19T06:21:36;7.13;;;1.73;;
56307;SDS011;42217;50.422;7.210;2023-11-19T06:24:02;8.47;;;1.90;;
56307;SDS011;42217;50.422;7.210;2023-11-19T06:26:28;11.47;;;2.50;;
56307;SDS011;42217;50.422;7.210;2023-11-19T06:28:54;5.03;;;1.77;;
56307;SDS011;42217;50.422;7.210;2023-11-19T06:31:19;6.73;;;2.70;;
56307;SDS011;42217;50.422;7.210;2023-11-19T06:33:45;8.70;;;1.93;;
56307;SDS011;42217;50.422;7.210;2023-11-19T06:36:14;10.77;;;2.40;;
56307;SDS011;42217;50.422;7.210;2023-11-19T06:38:41;11.50;;;2.43;;
56307;SDS011;42217;50.422;7.210;2023-11-19T06:41:07;10.90;;;2.53;;
56307;SDS011;42217;50.422;7.210;2023-11-19T06:43:34;11.57;;;1.80;;
56307;SDS011;42217;50.422;7.210;2023-11-19T06:46:01;14.23;;;3.63;;
56307;SDS011;42217;50.422;7.210;2023-11-19T06:48:27;7.93;;;1.77;;
56307;SDS011;42217;50.422;7.210;2023-11-19T06:50:53;6.20;;;2.03;;
56307;SDS011;42217;50.422;7.210;2023-11-19T06:53:18;7.60;;;2.10;;
56307;SDS011;42217;50.422;7.210;2023-11-19T06:55:44;13.50;;;2.50;;
56307;SDS011;42217;50.422;7.210;2023-11-19T06:58:10;10.63;;;3.97;;
56307;SDS011;42217;50.422;7.210;2023-11-19T07:00:37;8.87;;;1.70;;
56307;SDS011;42217;50.422;7.210;2023-11-19T07:03:02;12.60;;;2.57;;
56307;SDS011;42217;50.422;7.210;2023-11-19T07:05:35;15.53;;;3.30;;
56307;SDS011;42217;50.422;7.210;2023-11-19T07:08:03;10.53;;;2.00;;
56307;SDS011;42217;50.422;7.210;2023-11-19T07:10:29;10.33;;;1.77;;
56307;SDS011;42217;50.422;7.210;2023-11-19T07:12:55;12.53;;;3.10;;
56307;SDS011;42217;50.422;7.210;2023-11-19T07:15:22;9.17;;;2.80;;
56307;SDS011;42217;50.422;7.210;2023-11-19T07:17:47;5.77;;;1.93;;
56307;SDS011;42217;50.422;7.210;2023-11-19T07:20:13;14.80;;;2.87;;
56307;SDS011;42217;50.422;7.210;2023-11-19T07:22:42;16.07;;;2.93;;
56307;SDS011;42217;50.422;7.210;2023-11-19T07:25:11;11.40;;;2.27;;
56307;SDS011;42217;50.422;7.210;2023-11-19T07:27:39;10.13;;;2.83;;
56307;SDS011;42217;50.422;7.210;2023-11-19T07:30:06;13.52;;;3.00;;
56307;SDS011;42217;50.422;7.210;2023-11-19T07:32:34;11.40;;;2.40;;
56307;SDS011;42217;50.422;7.210;2023-11-19T07:35:00;11.93;;;2.07;;
56307;SDS011;42217;50.422;7.210;2023-11-19T07:37:26;14.23;;;2.23;;
56307;SDS011;42217;50.422;7.210;2023-11-19T07:39:51;10.47;;;2.17;;
56307;SDS011;42217;50.422;7.210;2023-11-19T07:42:17;12.43;;;3.03;;
56307;SDS011;42217;50.422;7.210;2023-11-19T07:44:43;12.33;;;2.57;;
56307;SDS011;42217;50.422;7.210;2023-11-19T07:47:09;11.43;;;1.97;;
56307;SDS011;42217;50.422;7.210;2023-11-19T07:49:35;7.07;;;1.90;;
56307;SDS011;42217;50.422;7.210;2023-11-19T07:52:00;15.67;;;2.83;;
56307;SDS011;42217;50.422;7.210;2023-11-19T07:54:28;13.20;;;2.40;;
56307;SDS011;42217;50.422;7.210;2023-11-19T07:56:54;13.30;;;2.03;;
56307;SDS011;42217;50.422;7.210;2023-11-19T07:59:20;12.83;;;3.97;;
56307;SDS011;42217;50.422;7.210;2023-11-19T08:01:46;15.80;;;2.83;;
56307;SDS011;42217;50.422;7.210;2023-11-19T08:04:11;19.10;;;2.73;;
56307;SDS011;42217;50.422;7.210;2023-11-19T08:06:37;19.10;;;4.23;;
56307;SDS011;42217;50.422;7.210;2023-11-19T08:09:03;14.33;;;2.83;;
56307;SDS011;42217;50.422;7.210;2023-11-19T08:11:29;21.23;;;3.60;;
56307;SDS011;42217;50.422;7.210;2023-11-19T08:13:54;14.07;;;3.07;;
56307;SDS011;42217;50.422;7.210;2023-11-19T08:16:20;18.37;;;3.40;;
56307;SDS011;42217;50.422;7.210;2023-11-19T08:18:46;15.13;;;3.03;;
56307;SDS011;42217;50.422;7.210;2023-11-19T08:21:11;17.40;;;3.27;;
56307;SDS011;42217;50.422;7.210;2023-11-19T08:23:38;14.25;;;2.53;;
56307;SDS011;42217;50.422;7.210;2023-11-19T08:26:04;13.03;;;2.90;;
56307;SDS011;42217;50.422;7.210;2023-11-19T08:28:30;14.77;;;3.78;;
56307;SDS011;42217;50.422;7.210;2023-11-19T08:30:56;11.27;;;2.45;;
56307;SDS011;42217;50.422;7.210;2023-11-19T08:33:23;14.55;;;2.50;;
56307;SDS011;42217;50.422;7.210;2023-11-19T08:35:49;18.77;;;3.77;;
56307;SDS011;42217;50.422;7.210;2023-11-19T08:38:15;10.53;;;2.73;;
56307;SDS011;42217;50.422;7.210;2023-11-19T08:40:40;12.87;;;2.17;;
56307;SDS011;42217;50.422;7.210;2023-11-19T08:43:06;13.93;;;2.87;;
56307;SDS011;42217;50.422;7.210;2023-11-19T08:45:32;13.23;;;2.80;;
56307;SDS011;42217;50.422;7.210;2023-11-19T08:47:58;11.30;;;1.57;;
56307;SDS011;42217;50.422;7.210;2023-11-19T08:50:23;8.50;;;2.00;;
56307;SDS011;42217;50.422;7.210;2023-11-19T08:52:49;12.07;;;2.57;;
56307;SDS011;42217;50.422;7.210;2023-11-19T08:55:14;12.95;;;2.35;;
56307;SDS011;42217;50.422;7.210;2023-11-19T08:57:40;13.07;;;1.67;;
56307;SDS011;42217;50.422;7.210;2023-11-19T09:00:06;12.27;;;2.40;;
56307;SDS011;42217;50.422;7.210;2023-11-19T09:02:33;11.57;;;2.40;;
56307;SDS011;42217;50.422;7.210;2023-11-19T09:05:00;23.50;;;4.60;;
56307;SDS011;42217;50.422;7.210;2023-11-19T09:07:26;16.97;;;3.53;;
56307;SDS011;42217;50.422;7.210;2023-11-19T09:09:52;15.38;;;2.88;;
56307;SDS011;42217;50.422;7.210;2023-11-19T09:12:18;10.33;;;2.20;;
56307;SDS011;42217;50.422;7.210;2023-11-19T09:14:43;9.57;;;2.70;;
56307;SDS011;42217;50.422;7.210;2023-11-19T09:17:10;25.00;;;3.28;;
56307;SDS011;42217;50.422;7.210;2023-11-19T09:19:36;29.40;;;3.83;;
56307;SDS011;42217;50.422;7.210;2023-11-19T09:22:02;12.13;;;4.00;;
56307;SDS011;42217;50.422;7.210;2023-11-19T09:24:28;17.73;;;3.20;;
56307;SDS011;42217;50.422;7.210;2023-11-19T09:26:54;13.27;;;3.55;;
56307;SDS011;42217;50.422;7.210;2023-11-19T09:29:21;16.67;;;3.00;;
56307;SDS011;42217;50.422;7.210;2023-11-19T09:31:47;19.77;;;3.70;;
56307;SDS011;42217;50.422;7.210;2023-11-19T09:34:12;18.02;;;2.60;;
56307;SDS011;42217;50.422;7.210;2023-11-19T09:36:38;18.42;;;4.78;;
56307;SDS011;42217;50.422;7.210;2023-11-19T09:39:08;12.13;;;2.42;;
56307;SDS011;42217;50.422;7.210;2023-11-19T09:41:42;17.37;;;4.13;;
56307;SDS011;42217;50.422;7.210;2023-11-19T09:44:10;12.07;;;2.43;;
56307;SDS011;42217;50.422;7.210;2023-11-19T09:46:37;22.75;;;3.22;;
56307;SDS011;42217;50.422;7.210;2023-11-19T09:49:06;12.48;;;2.55;;
56307;SDS011;42217;50.422;7.210;2023-11-19T09:51:34;16.70;;;3.25;;
56307;SDS011;42217;50.422;7.210;2023-11-19T09:54:03;16.15;;;3.83;;
56307;SDS011;42217;50.422;7.210;2023-11-19T09:56:29;18.33;;;2.42;;
56307;SDS011;42217;50.422;7.210;2023-11-19T09:58:55;23.05;;;3.95;;
56307;SDS011;42217;50.422;7.210;2023-11-19T10:01:21;17.77;;;3.97;;
56307;SDS011;42217;50.422;7.210;2023-11-19T10:03:47;15.50;;;3.95;;
56307;SDS011;42217;50.422;7.210;2023-11-19T10:06:15;19.35;;;3.03;;
56307;SDS011;42217;50.422;7.210;2023-11-19T10:08:41;19.55;;;3.55;;
56307;SDS011;42217;50.422;7.210;2023-11-19T10:11:08;24.77;;;3.88;;
56307;SDS011;42217;50.422;7.210;2023-11-19T10:13:38;25.70;;;5.13;;
56307;SDS011;42217;50.422;7.210;2023-11-19T10:16:07;20.30;;;3.53;;
56307;SDS011;42217;50.422;7.210;2023-11-19T10:18:34;17.50;;;3.93;;
56307;SDS011;42217;50.422;7.210;2023-11-19T10:21:06;14.27;;;2.97;;
56307;SDS011;42217;50.422;7.210;2023-11-19T10:23:47;16.15;;;3.20;;
56307;SDS011;42217;50.422;7.210;2023-11-19T10:26:17;13.95;;;3.17;;
56307;SDS011;42217;50.422;7.210;2023-11-19T10:28:43;32.03;;;4.30;;
56307;SDS011;42217;50.422;7.210;2023-11-19T10:31:14;22.00;;;2.97;;
56307;SDS011;42217;50.422;7.210;2023-11-19T10:33:42;12.80;;;2.95;;
56307;SDS011;42217;50.422;7.210;2023-11-19T10:36:10;16.93;;;3.07;;
56307;SDS011;42217;50.422;7.210;2023-11-19T10:38:37;15.67;;;3.37;;
56307;SDS011;42217;50.422;7.210;2023-11-19T10:41:04;12.95;;;4.85;;
56307;SDS011;42217;50.422;7.210;2023-11-19T10:43:31;17.92;;;2.47;;
56307;SDS011;42217;50.422;7.210;2023-11-19T10:46:12;18.90;;;2.83;;
56307;SDS011;42217;50.422;7.210;2023-11-19T10:48:38;21.67;;;3.60;;
56307;SDS011;42217;50.422;7.210;2023-11-19T10:51:05;16.67;;;3.27;;
56307;SDS011;42217;50.422;7.210;2023-11-19T10:53:33;24.10;;;3.57;;
56307;SDS011;42217;50.422;7.210;2023-11-19T10:56:04;15.47;;;2.43;;
56307;SDS011;42217;50.422;7.210;2023-11-19T10:58:35;15.80;;;3.78;;
56307;SDS011;42217;50.422;7.210;2023-11-19T11:01:09;20.33;;;4.40;;
56307;SDS011;42217;50.422;7.210;2023-11-19T11:03:48;10.67;;;2.03;;
56307;SDS011;42217;50.422;7.210;2023-11-19T11:06:19;13.87;;;3.43;;
56307;SDS011;42217;50.422;7.210;2023-11-19T11:08:47;11.57;;;2.27;;
56307;SDS011;42217;50.422;7.210;2023-11-19T11:11:15;15.70;;;2.43;;
56307;SDS011;42217;50.422;7.210;2023-11-19T11:13:46;15.10;;;2.28;;
56307;SDS011;42217;50.422;7.210;2023-11-19T11:16:14;12.63;;;2.73;;
56307;SDS011;42217;50.422;7.210;2023-11-19T11:18:43;11.90;;;3.03;;
56307;SDS011;42217;50.422;7.210;2023-11-19T11:21:13;11.97;;;2.63;;
56307;SDS011;42217;50.422;7.210;2023-11-19T11:23:47;9.05;;;2.50;;
56307;SDS011;42217;50.422;7.210;2023-11-19T11:29:37;15.77;;;2.77;;
56307;SDS011;42217;50.422;7.210;2023-11-19T11:32:37;14.73;;;3.95;;
56307;SDS011;42217;50.422;7.210;2023-11-19T11:35:24;9.37;;;1.97;;
56307;SDS011;42217;50.422;7.210;2023-11-19T11:38:08;15.15;;;3.08;;
56307;SDS011;42217;50.422;7.210;2023-11-19T11:40:34;15.73;;;3.47;;
56307;SDS011;42217;50.422;7.210;2023-11-19T11:43:01;12.73;;;3.03;;
56307;SDS011;42217;50.422;7.210;2023-11-19T11:45:37;21.20;;;4.03;;
56307;SDS011;42217;50.422;7.210;2023-11-19T11:50:34;13.05;;;3.35;;
56307;SDS011;42217;50.422;7.210;2023-11-19T11:58:05;11.80;;;2.85;;
56307;SDS011;42217;50.422;7.210;2023-11-19T12:00:37;18.00;;;4.00;;
56307;SDS011;42217;50.422;7.210;2023-11-19T12:03:07;20.27;;;2.47;;
56307;SDS011;42217;50.422;7.210;2023-11-19T12:05:33;13.95;;;3.03;;
56307;SDS011;42217;50.422;7.210;2023-11-19T12:08:09;9.25;;;3.45;;
56307;SDS011;42217;50.422;7.210;2023-11-19T12:10:44;16.35;;;2.65;;
56307;SDS011;42217;50.422;7.210;2023-11-19T12:13:14;14.35;;;2.47;;
56307;SDS011;42217;50.422;7.210;2023-11-19T12:18:31;11.77;;;2.85;;
56307;SDS011;42217;50.422;7.210;2023-11-19T12:20:58;11.95;;;3.20;;
56307;SDS011;42217;50.422;7.210;2023-11-19T12:23:30;13.55;;;3.67;;
56307;SDS011;42217;50.422;7.210;2023-11-19T12:25:57;9.85;;;2.17;;
56307;SDS011;42217;50.422;7.210;2023-11-19T12:28:23;19.45;;;3.53;;
56307;SDS011;42217;50.422;7.210;2023-11-19T12:30:51;12.18;;;3.25;;
56307;SDS011;42217;50.422;7.210;2023-11-19T12:33:18;15.68;;;3.10;;
56307;SDS011;42217;50.422;7.210;2023-11-19T12:35:45;22.60;;;3.83;;
56307;SDS011;42217;50.422;7.210;2023-11-19T12:38:21;13.55;;;2.30;;
56307;SDS011;42217;50.422;7.210;2023-11-19T12:41:01;9.25;;;3.03;;
56307;SDS011;42217;50.422;7.210;2023-11-19T12:43:37;11.13;;;3.33;;
56307;SDS011;42217;50.422;7.210;2023-11-19T12:46:16;12.75;;;2.20;;
56307;SDS011;42217;50.422;7.210;2023-11-19T12:48:43;13.65;;;3.55;;
56307;SDS011;42217;50.422;7.210;2023-11-19T12:51:08;13.40;;;2.92;;
56307;SDS011;42217;50.422;7.210;2023-11-19T12:53:46;12.25;;;2.65;;
56307;SDS011;42217;50.422;7.210;2023-11-19T12:56:19;12.77;;;2.10;;
56307;SDS011;42217;50.422;7.210;2023-11-19T12:58:48;18.25;;;4.05;;
56307;SDS011;42217;50.422;7.210;2023-11-19T13:01:18;16.95;;;3.80;;
56307;SDS011;42217;50.422;7.210;2023-11-19T13:03:44;16.33;;;2.83;;
56307;SDS011;42217;50.422;7.210;2023-11-19T13:06:12;15.32;;;1.92;;
56307;SDS011;42217;50.422;7.210;2023-11-19T13:08:45;14.65;;;2.20;;
56307;SDS011;42217;50.422;7.210;2023-11-19T13:11:30;9.85;;;1.98;;
56307;SDS011;42217;50.422;7.210;2023-11-19T13:14:00;17.48;;;2.75;;
56307;SDS011;42217;50.422;7.210;2023-11-19T13:16:33;11.35;;;2.85;;
56307;SDS011;42217;50.422;7.210;2023-11-19T13:19:02;10.55;;;2.00;;
56307;SDS011;42217;50.422;7.210;2023-11-19T13:21:28;13.75;;;1.92;;
56307;SDS011;42217;50.422;7.210;2023-11-19T13:23:55;10.23;;;2.28;;
56307;SDS011;42217;50.422;7.210;2023-11-19T13:26:20;13.70;;;1.90;;
56307;SDS011;42217;50.422;7.210;2023-11-19T13:28:46;19.17;;;3.25;;
56307;SDS011;42217;50.422;7.210;2023-11-19T13:31:12;13.63;;;1.95;;
56307;SDS011;42217;50.422;7.210;2023-11-19T13:33:39;13.18;;;2.60;;
56307;SDS011;42217;50.422;7.210;2023-11-19T13:36:05;16.70;;;2.17;;
56307;SDS011;42217;50.422;7.210;2023-11-19T13:38:33;13.75;;;2.35;;
56307;SDS011;42217;50.422;7.210;2023-11-19T13:40:59;12.40;;;2.30;;
56307;SDS011;42217;50.422;7.210;2023-11-19T13:43:25;11.98;;;2.85;;
56307;SDS011;42217;50.422;7.210;2023-11-19T13:45:53;12.50;;;2.03;;
56307;SDS011;42217;50.422;7.210;2023-11-19T13:48:23;14.27;;;3.25;;
56307;SDS011;42217;50.422;7.210;2023-11-19T13:50:49;9.70;;;2.50;;
56307;SDS011;42217;50.422;7.210;2023-11-19T13:53:15;17.45;;;2.75;;
56307;SDS011;42217;50.422;7.210;2023-11-19T13:55:42;10.65;;;2.95;;
56307;SDS011;42217;50.422;7.210;2023-11-19T13:58:08;11.43;;;1.73;;
56307;SDS011;42217;50.422;7.210;2023-11-19T14:00:34;11.18;;;2.85;;
56307;SDS011;42217;50.422;7.210;2023-11-19T14:03:00;15.63;;;3.22;;
56307;SDS011;42217;50.422;7.210;2023-11-19T14:05:25;17.63;;;4.13;;
56307;SDS011;42217;50.422;7.210;2023-11-19T14:07:51;12.17;;;3.93;;
56307;SDS011;42217;50.422;7.210;2023-11-19T14:10:18;13.02;;;1.88;;
56307;SDS011;42217;50.422;7.210;2023-11-19T14:12:44;17.33;;;2.92;;
56307;SDS011;42217;50.422;7.210;2023-11-19T14:15:10;9.18;;;1.75;;
56307;SDS011;42217;50.422;7.210;2023-11-19T14:17:37;11.32;;;4.45;;
56307;SDS011;42217;50.422;7.210;2023-11-19T14:20:04;8.43;;;2.95;;
56307;SDS011;42217;50.422;7.210;2023-11-19T14:22:41;18.80;;;3.70;;
56307;SDS011;42217;50.422;7.210;2023-11-19T14:25:10;12.70;;;3.25;;
56307;SDS011;42217;50.422;7.210;2023-11-19T14:27:37;10.18;;;2.13;;
56307;SDS011;42217;50.422;7.210;2023-11-19T14:30:04;13.85;;;2.40;;
56307;SDS011;42217;50.422;7.210;2023-11-19T14:32:31;11.35;;;2.65;;
56307;SDS011;42217;50.422;7.210;2023-11-19T14:34:57;8.48;;;2.97;;
56307;SDS011;42217;50.422;7.210;2023-11-19T14:37:22;14.20;;;2.97;;
56307;SDS011;42217;50.422;7.210;2023-11-19T14:39:48;13.45;;;2.80;;
56307;SDS011;42217;50.422;7.210;2023-11-19T14:42:15;11.93;;;3.72;;
56307;SDS011;42217;50.422;7.210;2023-11-19T14:44:42;12.70;;;3.60;;
56307;SDS011;42217;50.422;7.210;2023-11-19T14:47:07;11.23;;;2.10;;
56307;SDS011;42217;50.422;7.210;2023-11-19T14:49:36;10.75;;;1.83;;
56307;SDS011;42217;50.422;7.210;2023-11-19T14:52:04;12.40;;;2.22;;
56307;SDS011;42217;50.422;7.210;2023-11-19T14:54:30;12.65;;;1.95;;
56307;SDS011;42217;50.422;7.210;2023-11-19T14:56:56;11.25;;;2.50;;
56307;SDS011;42217;50.422;7.210;2023-11-19T14:59:24;13.02;;;1.83;;
56307;SDS011;42217;50.422;7.210;2023-11-19T15:01:50;10.85;;;2.55;;